sensor_id;sensor_type;location;lat;lon;timestamp;pressure;altitude;pressure_sealevel;temperature;humidity
50434;BME280;36361;38.954;-9.002;2023-05-23T00:00:32;100267.38;;;17.93;100.00
50434;BME280;36361;38.954;-9.002;2023-05-23T00:01:33;100267.09;;;17.95;100.00
50434;BME280;36361;38.954;-9.002;2023-05-23T00:02:36;100261.03;;;17.87;100.00
50434;BME280;36361;38.954;-9.002;2023-05-23T00:03:38;100256.06;;;17.84;100.00
50434;BME280;36361;38.954;-9.002;2023-05-23T00:04:38;100264.88;;;17.91;100.00
50434;BME280;36361;38.954;-9.002;2023-05-23T00:05:39;100256.06;;;17.89;100.00
50434;BME280;36361;38.954;-9.002;2023-05-23T00:06:40;100262.16;;;18.02;100.00
50434;BME280;36361;38.954;-9.002;2023-05-23T00:07:46;100253.59;;;18.08;100.00
50434;BME280;36361;38.954;-9.002;2023-05-23T00:08:47;100266.25;;;17.99;100.00
50434;BME280;36361;38.954;-9.002;2023-05-23T00:09:47;100257.72;;;17.96;100.00
50434;BME280;36361;38.954;-9.002;2023-05-23T00:10:48;100258.81;;;17.89;100.00
50434;BME280;36361;38.954;-9.002;2023-05-23T00:11:49;100257.13;;;17.68;100.00
50434;BME280;36361;38.954;-9.002;2023-05-23T00:12:50;100256.00;;;17.59;100.00
50434;BME280;36361;38.954;-9.002;2023-05-23T00:13:52;100260.75;;;17.79;100.00
50434;BME280;36361;38.954;-9.002;2023-05-23T00:14:53;100255.78;;;17.81;100.00
50434;BME280;36361;38.954;-9.002;2023-05-23T00:15:54;100256.91;;;17.85;100.00
50434;BME280;36361;38.954;-9.002;2023-05-23T00:16:54;100256.91;;;17.85;100.00
50434;BME280;36361;38.954;-9.002;2023-05-23T00:17:55;100251.91;;;17.82;100.00
50434;BME280;36361;38.954;-9.002;2023-05-23T00:18:56;100250.56;;;17.84;100.00
50434;BME280;36361;38.954;-9.002;2023-05-23T00:19:58;100253.88;;;17.97;100.00
50434;BME280;36361;38.954;-9.002;2023-05-23T00:20:59;100248.38;;;18.17;100.00
50434;BME280;36361;38.954;-9.002;2023-05-23T00:21:59;100252.78;;;18.08;100.00
50434;BME280;36361;38.954;-9.002;2023-05-23T00:23:01;100243.41;;;18.24;100.00
50434;BME280;36361;38.954;-9.002;2023-05-23T00:24:03;100246.69;;;18.36;100.00
50434;BME280;36361;38.954;-9.002;2023-05-23T00:25:05;100243.94;;;18.41;100.00
50434;BME280;36361;38.954;-9.002;2023-05-23T00:26:06;100240.66;;;18.39;100.00
50434;BME280;36361;38.954;-9.002;2023-05-23T00:27:07;100248.63;;;18.10;100.00
50434;BME280;36361;38.954;-9.002;2023-05-23T00:28:08;100248.94;;;18.14;100.00
50434;BME280;36361;38.954;-9.002;2023-05-23T00:29:08;100242.84;;;18.07;100.00
50434;BME280;36361;38.954;-9.002;2023-05-23T00:30:17;100253.06;;;18.11;100.00
50434;BME280;36361;38.954;-9.002;2023-05-23T00:31:18;100240.66;;;17.99;100.00
50434;BME280;36361;38.954;-9.002;2023-05-23T00:32:22;100243.94;;;18.01;100.00
50434;BME280;36361;38.954;-9.002;2023-05-23T00:33:23;100243.41;;;18.04;100.00
50434;BME280;36361;38.954;-9.002;2023-05-23T00:34:23;100244.50;;;17.98;100.00
50434;BME280;36361;38.954;-9.002;2023-05-23T00:35:24;100238.16;;;18.17;100.00
50434;BME280;36361;38.954;-9.002;2023-05-23T00:36:25;100242.31;;;18.20;100.00
50434;BME280;36361;38.954;-9.002;2023-05-23T00:37:26;100241.22;;;18.16;100.00
50434;BME280;36361;38.954;-9.002;2023-05-23T00:38:27;100243.97;;;18.21;100.00
50434;BME280;36361;38.954;-9.002;2023-05-23T00:39:29;100238.72;;;18.14;100.00
50434;BME280;36361;38.954;-9.002;2023-05-23T00:40:30;100239.81;;;18.18;100.00
50434;BME280;36361;38.954;-9.002;2023-05-23T00:41:30;100240.94;;;17.97;100.00
50434;BME280;36361;38.954;-9.002;2023-05-23T00:42:31;100237.84;;;17.63;100.00
50434;BME280;36361;38.954;-9.002;2023-05-23T00:43:32;100239.84;;;17.93;100.00
50434;BME280;36361;38.954;-9.002;2023-05-23T00:44:33;100241.78;;;18.03;100.00
50434;BME280;36361;38.954;-9.002;2023-05-23T00:45:33;100239.28;;;18.01;100.00
50434;BME280;36361;38.954;-9.002;2023-05-23T00:46:34;100236.78;;;17.89;100.00
50434;BME280;36361;38.954;-9.002;2023-05-23T00:47:35;100242.03;;;17.96;100.00
50434;BME280;36361;38.954;-9.002;2023-05-23T00:48:37;100228.00;;;17.87;100.00
50434;BME280;36361;38.954;-9.002;2023-05-23T00:49:39;100226.34;;;17.97;100.00
50434;BME280;36361;38.954;-9.002;2023-05-23T00:50:40;100232.94;;;18.06;100.00
50434;BME280;36361;38.954;-9.002;2023-05-23T00:51:41;100221.38;;;17.99;100.00
50434;BME280;36361;38.954;-9.002;2023-05-23T00:52:44;100228.81;;;17.98;100.00
50434;BME280;36361;38.954;-9.002;2023-05-23T00:53:45;100222.47;;;17.98;100.00
50434;BME280;36361;38.954;-9.002;2023-05-23T00:54:46;100218.09;;;18.12;100.00
50434;BME280;36361;38.954;-9.002;2023-05-23T00:55:47;100223.03;;;18.15;100.00
50434;BME280;36361;38.954;-9.002;2023-05-23T00:56:48;100221.38;;;18.19;100.00
50434;BME280;36361;38.954;-9.002;2023-05-23T00:57:49;100215.88;;;18.24;100.00
50434;BME280;36361;38.954;-9.002;2023-05-23T00:58:53;100214.50;;;18.06;100.00
50434;BME280;36361;38.954;-9.002;2023-05-23T00:59:54;100218.09;;;18.02;100.00
50434;BME280;36361;38.954;-9.002;2023-05-23T01:00:55;100211.47;;;18.08;100.00
50434;BME280;36361;38.954;-9.002;2023-05-23T01:01:57;100214.78;;;18.05;100.00
50434;BME280;36361;38.954;-9.002;2023-05-23T01:02:59;100209.81;;;18.17;100.00
50434;BME280;36361;38.954;-9.002;2023-05-23T01:04:01;100206.78;;;17.98;100.00
50434;BME280;36361;38.954;-9.002;2023-05-23T01:05:02;100215.59;;;18.10;100.00
50434;BME280;36361;38.954;-9.002;2023-05-23T01:06:03;100214.22;;;18.13;100.00
50434;BME280;36361;38.954;-9.002;2023-05-23T01:07:03;100214.78;;;18.00;100.00
50434;BME280;36361;38.954;-9.002;2023-05-23T01:08:04;100215.59;;;17.70;100.00
50434;BME280;36361;38.954;-9.002;2023-05-23T01:09:05;100215.34;;;17.86;100.00
50434;BME280;36361;38.954;-9.002;2023-05-23T01:10:08;100212.03;;;17.79;100.00
50434;BME280;36361;38.954;-9.002;2023-05-23T01:11:33;100213.13;;;17.88;100.00
50434;BME280;36361;38.954;-9.002;2023-05-23T01:14:08;100207.06;;;17.91;100.00
50434;BME280;36361;38.954;-9.002;2023-05-23T01:15:13;100211.50;;;18.03;100.00
50434;BME280;36361;38.954;-9.002;2023-05-23T01:16:47;100206.78;;;17.98;100.00
50434;BME280;36361;38.954;-9.002;2023-05-23T01:17:49;100204.03;;;17.98;100.00
50434;BME280;36361;38.954;-9.002;2023-05-23T01:20:30;100208.72;;;18.03;100.00
50434;BME280;36361;38.954;-9.002;2023-05-23T01:21:32;100204.59;;;17.95;100.00
50434;BME280;36361;38.954;-9.002;2023-05-23T01:29:01;100199.09;;;17.90;100.00
50434;BME280;36361;38.954;-9.002;2023-05-23T01:30:07;100199.91;;;17.90;100.00
50434;BME280;36361;38.954;-9.002;2023-05-23T01:31:10;100190.00;;;18.05;100.00
50434;BME280;36361;38.954;-9.002;2023-05-23T01:32:13;100190.25;;;18.08;100.00
50434;BME280;36361;38.954;-9.002;2023-05-23T01:33:15;100178.97;;;18.10;100.00
50434;BME280;36361;38.954;-9.002;2023-05-23T01:34:17;100182.25;;;18.17;100.00
50434;BME280;36361;38.954;-9.002;2023-05-23T01:35:26;100185.03;;;18.17;100.00
50434;BME280;36361;38.954;-9.002;2023-05-23T01:36:28;100182.84;;;18.14;100.00
50434;BME280;36361;38.954;-9.002;2023-05-23T01:37:28;100175.13;;;18.06;100.00
50434;BME280;36361;38.954;-9.002;2023-05-23T01:38:29;100172.38;;;17.90;100.00
50434;BME280;36361;38.954;-9.002;2023-05-23T01:39:33;100182.84;;;18.04;100.00
50434;BME280;36361;38.954;-9.002;2023-05-23T01:40:35;100177.34;;;17.99;100.00
50434;BME280;36361;38.954;-9.002;2023-05-23T01:41:36;100171.28;;;17.71;100.00
50434;BME280;36361;38.954;-9.002;2023-05-23T01:42:37;100169.09;;;17.78;100.00
50434;BME280;36361;38.954;-9.002;2023-05-23T01:43:37;100169.91;;;17.94;100.00
50434;BME280;36361;38.954;-9.002;2023-05-23T01:44:38;100171.56;;;17.95;100.00
50434;BME280;36361;38.954;-9.002;2023-05-23T01:45:40;100177.06;;;17.80;100.00
50434;BME280;36361;38.954;-9.002;2023-05-23T01:46:41;100173.44;;;17.64;100.00
50434;BME280;36361;38.954;-9.002;2023-05-23T01:47:47;100175.38;;;17.63;100.00
50434;BME280;36361;38.954;-9.002;2023-05-23T01:48:49;100177.28;;;17.63;100.00
50434;BME280;36361;38.954;-9.002;2023-05-23T01:49:51;100176.22;;;17.69;100.00
50434;BME280;36361;38.954;-9.002;2023-05-23T01:50:52;100181.72;;;17.69;100.00
50434;BME280;36361;38.954;-9.002;2023-05-23T01:51:53;100177.88;;;17.80;100.00
50434;BME280;36361;38.954;-9.002;2023-05-23T01:52:54;100184.75;;;17.83;100.00
50434;BME280;36361;38.954;-9.002;2023-05-23T01:53:56;100179.56;;;17.76;100.00
50434;BME280;36361;38.954;-9.002;2023-05-23T01:54:58;100177.84;;;17.50;100.00
50434;BME280;36361;38.954;-9.002;2023-05-23T01:56:00;100178.38;;;17.42;100.00
50434;BME280;36361;38.954;-9.002;2023-05-23T01:57:03;100180.28;;;17.31;100.00
50434;BME280;36361;38.954;-9.002;2023-05-23T01:58:06;100173.41;;;17.28;100.00
50434;BME280;36361;38.954;-9.002;2023-05-23T01:59:07;100172.06;;;17.41;100.00
50434;BME280;36361;38.954;-9.002;2023-05-23T02:00:08;100173.44;;;17.44;100.00
50434;BME280;36361;38.954;-9.002;2023-05-23T02:01:14;100173.44;;;17.59;100.00
50434;BME280;36361;38.954;-9.002;2023-05-23T02:02:15;100179.81;;;17.70;100.00
50434;BME280;36361;38.954;-9.002;2023-05-23T02:03:18;100175.16;;;17.85;100.00
50434;BME280;36361;38.954;-9.002;2023-05-23T02:04:20;100176.78;;;17.81;100.00
50434;BME280;36361;38.954;-9.002;2023-05-23T02:05:24;100180.09;;;17.94;100.00
50434;BME280;36361;38.954;-9.002;2023-05-23T02:06:25;100181.19;;;18.03;100.00
50434;BME280;36361;38.954;-9.002;2023-05-23T02:07:26;100169.09;;;17.78;100.00
50434;BME280;36361;38.954;-9.002;2023-05-23T02:08:27;100171.25;;;17.66;100.00
50434;BME280;36361;38.954;-9.002;2023-05-23T02:09:27;100169.63;;;17.96;100.00
50434;BME280;36361;38.954;-9.002;2023-05-23T02:10:28;100161.91;;;18.13;100.00
50434;BME280;36361;38.954;-9.002;2023-05-23T02:11:32;100163.81;;;18.23;100.00
50434;BME280;36361;38.954;-9.002;2023-05-23T02:12:33;100170.69;;;18.30;100.00
50434;BME280;36361;38.954;-9.002;2023-05-23T02:13:34;100168.44;;;18.42;100.00
50434;BME280;36361;38.954;-9.002;2023-05-23T02:14:38;100161.81;;;18.48;100.00
50434;BME280;36361;38.954;-9.002;2023-05-23T02:15:39;100158.50;;;18.57;100.00
50434;BME280;36361;38.954;-9.002;2023-05-23T02:16:40;100161.28;;;18.41;100.00
50434;BME280;36361;38.954;-9.002;2023-05-23T02:17:41;100146.94;;;18.50;100.00
50434;BME280;36361;38.954;-9.002;2023-05-23T02:18:42;100149.72;;;18.39;100.00
50434;BME280;36361;38.954;-9.002;2023-05-23T02:19:47;100151.31;;;18.56;100.00
50434;BME280;36361;38.954;-9.002;2023-05-23T02:20:48;100147.13;;;18.73;100.00
50434;BME280;36361;38.954;-9.002;2023-05-23T02:21:48;100136.44;;;18.67;100.00
50434;BME280;36361;38.954;-9.002;2023-05-23T02:22:49;100142.81;;;18.47;100.00
50434;BME280;36361;38.954;-9.002;2023-05-23T02:23:50;100138.63;;;18.65;100.00
50434;BME280;36361;38.954;-9.002;2023-05-23T02:24:51;100146.91;;;18.65;100.00
50434;BME280;36361;38.954;-9.002;2023-05-23T02:25:52;100136.38;;;18.77;100.00
50434;BME280;36361;38.954;-9.002;2023-05-23T02:26:52;100141.59;;;18.84;100.00
50434;BME280;36361;38.954;-9.002;2023-05-23T02:27:53;100139.66;;;18.84;100.00
50434;BME280;36361;38.954;-9.002;2023-05-23T02:28:54;100140.44;;;18.95;100.00
50434;BME280;36361;38.954;-9.002;2023-05-23T02:29:54;100130.53;;;18.94;100.00
50434;BME280;36361;38.954;-9.002;2023-05-23T02:30:56;100142.38;;;18.94;100.00
50434;BME280;36361;38.954;-9.002;2023-05-23T02:32:03;100140.09;;;19.01;100.00
50434;BME280;36361;38.954;-9.002;2023-05-23T02:33:05;100139.06;;;18.92;100.00
50434;BME280;36361;38.954;-9.002;2023-05-23T02:34:18;100142.63;;;18.98;100.00
50434;BME280;36361;38.954;-9.002;2023-05-23T02:35:19;100134.41;;;18.93;100.00
50434;BME280;36361;38.954;-9.002;2023-05-23T02:36:26;100143.97;;;19.00;100.00
50434;BME280;36361;38.954;-9.002;2023-05-23T02:37:30;100141.56;;;18.94;100.00
50434;BME280;36361;38.954;-9.002;2023-05-23T02:38:36;100146.72;;;19.00;100.00
50434;BME280;36361;38.954;-9.002;2023-05-23T02:39:37;100152.78;;;19.08;100.00
50434;BME280;36361;38.954;-9.002;2023-05-23T02:40:38;100154.16;;;19.05;100.00
50434;BME280;36361;38.954;-9.002;2023-05-23T02:41:38;100144.66;;;18.77;100.00
50434;BME280;36361;38.954;-9.002;2023-05-23T02:42:39;100150.66;;;18.89;100.00
50434;BME280;36361;38.954;-9.002;2023-05-23T02:43:40;100145.41;;;18.93;100.00
50434;BME280;36361;38.954;-9.002;2023-05-23T02:44:41;100143.59;;;18.68;100.00
50434;BME280;36361;38.954;-9.002;2023-05-23T02:45:42;100145.28;;;18.43;100.00
50434;BME280;36361;38.954;-9.002;2023-05-23T02:46:42;100148.66;;;18.30;100.00
50434;BME280;36361;38.954;-9.002;2023-05-23T02:47:43;100148.09;;;18.33;100.00
50434;BME280;36361;38.954;-9.002;2023-05-23T02:48:44;100147.81;;;18.40;100.00
50434;BME280;36361;38.954;-9.002;2023-05-23T02:49:45;100145.28;;;18.48;100.00
50434;BME280;36361;38.954;-9.002;2023-05-23T02:50:46;100141.38;;;18.70;100.00
50434;BME280;36361;38.954;-9.002;2023-05-23T02:51:47;100147.47;;;18.52;100.00
50434;BME280;36361;38.954;-9.002;2023-05-23T02:52:48;100137.81;;;18.59;100.00
50434;BME280;36361;38.954;-9.002;2023-05-23T02:53:49;100143.03;;;18.61;100.00
50434;BME280;36361;38.954;-9.002;2023-05-23T02:54:49;100149.09;;;18.63;100.00
50434;BME280;36361;38.954;-9.002;2023-05-23T02:55:50;100149.19;;;18.27;100.00
50434;BME280;36361;38.954;-9.002;2023-05-23T02:56:51;100138.69;;;18.44;100.00
50434;BME280;36361;38.954;-9.002;2023-05-23T02:57:57;100145.78;;;18.56;100.00
50434;BME280;36361;38.954;-9.002;2023-05-23T02:58:58;100137.78;;;18.74;100.00
50434;BME280;36361;38.954;-9.002;2023-05-23T02:59:59;100134.97;;;18.85;100.00
50434;BME280;36361;38.954;-9.002;2023-05-23T03:01:03;100131.94;;;18.81;100.00
50434;BME280;36361;38.954;-9.002;2023-05-23T03:02:07;100144.25;;;18.99;100.00
50434;BME280;36361;38.954;-9.002;2023-05-23T03:03:08;100140.72;;;18.93;100.00
50434;BME280;36361;38.954;-9.002;2023-05-23T03:04:09;100132.78;;;18.82;100.00
50434;BME280;36361;38.954;-9.002;2023-05-23T03:05:09;100127.84;;;18.63;100.00
50434;BME280;36361;38.954;-9.002;2023-05-23T03:06:10;100135.31;;;18.63;100.00
50434;BME280;36361;38.954;-9.002;2023-05-23T03:07:14;100132.47;;;18.88;100.00
50434;BME280;36361;38.954;-9.002;2023-05-23T03:08:15;100133.41;;;19.18;100.00
50434;BME280;36361;38.954;-9.002;2023-05-23T03:09:16;100127.88;;;19.18;100.00
50434;BME280;36361;38.954;-9.002;2023-05-23T03:10:17;100134.50;;;19.17;100.00
50434;BME280;36361;38.954;-9.002;2023-05-23T03:11:18;100128.97;;;19.22;100.00
50434;BME280;36361;38.954;-9.002;2023-05-23T03:12:19;100129.47;;;19.29;100.00
50434;BME280;36361;38.954;-9.002;2023-05-23T03:13:20;100126.88;;;19.43;100.00
50434;BME280;36361;38.954;-9.002;2023-05-23T03:14:21;100125.63;;;19.30;100.00
50434;BME280;36361;38.954;-9.002;2023-05-23T03:15:22;100125.88;;;19.28;100.00
50434;BME280;36361;38.954;-9.002;2023-05-23T03:16:23;100123.16;;;19.23;100.00
50434;BME280;36361;38.954;-9.002;2023-05-23T03:17:24;100124.50;;;19.31;100.00
50434;BME280;36361;38.954;-9.002;2023-05-23T03:18:25;100125.16;;;19.13;100.00
50434;BME280;36361;38.954;-9.002;2023-05-23T03:19:26;100127.94;;;19.13;100.00
50434;BME280;36361;38.954;-9.002;2023-05-23T03:20:26;100125.09;;;19.23;100.00
50434;BME280;36361;38.954;-9.002;2023-05-23T03:21:31;100127.88;;;19.23;100.00
50434;BME280;36361;38.954;-9.002;2023-05-23T03:22:32;100127.34;;;19.16;100.00
50434;BME280;36361;38.954;-9.002;2023-05-23T03:23:32;100128.16;;;19.16;100.00
50434;BME280;36361;38.954;-9.002;2023-05-23T03:24:33;100118.72;;;19.27;100.00
50434;BME280;36361;38.954;-9.002;2023-05-23T03:25:35;100111.97;;;19.04;100.00
50434;BME280;36361;38.954;-9.002;2023-05-23T03:26:35;100113.88;;;19.09;100.00
50434;BME280;36361;38.954;-9.002;2023-05-23T03:27:36;100123.31;;;19.03;100.00
50434;BME280;36361;38.954;-9.002;2023-05-23T03:28:37;100117.50;;;18.99;100.00
50434;BME280;36361;38.954;-9.002;2023-05-23T03:29:38;100124.38;;;19.07;100.00
50434;BME280;36361;38.954;-9.002;2023-05-23T03:30:38;100119.88;;;19.21;100.00
50434;BME280;36361;38.954;-9.002;2023-05-23T03:31:39;100126.78;;;19.19;100.00
50434;BME280;36361;38.954;-9.002;2023-05-23T03:32:40;100126.09;;;19.37;100.00
50434;BME280;36361;38.954;-9.002;2023-05-23T03:33:41;100126.56;;;19.49;100.00
50434;BME280;36361;38.954;-9.002;2023-05-23T03:34:42;100128.25;;;19.45;100.00
50434;BME280;36361;38.954;-9.002;2023-05-23T03:35:45;100123.91;;;19.34;100.00
50434;BME280;36361;38.954;-9.002;2023-05-23T03:36:45;100118.56;;;19.09;100.00
50434;BME280;36361;38.954;-9.002;2023-05-23T03:37:46;100122.84;;;19.30;100.00
50434;BME280;36361;38.954;-9.002;2023-05-23T03:38:47;100124.97;;;19.38;100.00
50434;BME280;36361;38.954;-9.002;2023-05-23T03:39:48;100132.13;;;19.44;100.00
50434;BME280;36361;38.954;-9.002;2023-05-23T03:40:52;100124.56;;;19.55;100.00
50434;BME280;36361;38.954;-9.002;2023-05-23T03:41:53;100130.69;;;19.57;100.00
50434;BME280;36361;38.954;-9.002;2023-05-23T03:43:01;100128.97;;;19.61;100.00
50434;BME280;36361;38.954;-9.002;2023-05-23T03:44:03;100133.84;;;19.74;100.00
50434;BME280;36361;38.954;-9.002;2023-05-23T03:45:04;100132.03;;;19.59;100.00
50434;BME280;36361;38.954;-9.002;2023-05-23T03:46:09;100130.84;;;19.71;100.00
50434;BME280;36361;38.954;-9.002;2023-05-23T03:47:10;100131.59;;;19.37;100.00
50434;BME280;36361;38.954;-9.002;2023-05-23T03:48:13;100129.94;;;19.41;100.00
50434;BME280;36361;38.954;-9.002;2023-05-23T03:49:16;100127.72;;;19.43;100.00
50434;BME280;36361;38.954;-9.002;2023-05-23T03:50:16;100133.31;;;19.33;100.00
50434;BME280;36361;38.954;-9.002;2023-05-23T03:51:17;100138.06;;;19.22;100.00
50434;BME280;36361;38.954;-9.002;2023-05-23T03:52:21;100147.19;;;19.18;100.00
50434;BME280;36361;38.954;-9.002;2023-05-23T03:53:22;100147.78;;;19.15;100.00
50434;BME280;36361;38.954;-9.002;2023-05-23T03:54:23;100150.53;;;19.10;100.00
50434;BME280;36361;38.954;-9.002;2023-05-23T03:55:24;100144.56;;;18.92;100.00
50434;BME280;36361;38.954;-9.002;2023-05-23T03:56:25;100145.13;;;18.94;100.00
50434;BME280;36361;38.954;-9.002;2023-05-23T03:57:26;100146.25;;;18.88;100.00
50434;BME280;36361;38.954;-9.002;2023-05-23T03:58:27;100145.25;;;18.69;100.00
50434;BME280;36361;38.954;-9.002;2023-05-23T03:59:32;100149.69;;;18.44;100.00
50434;BME280;36361;38.954;-9.002;2023-05-23T04:00:33;100143.66;;;18.42;100.00
50434;BME280;36361;38.954;-9.002;2023-05-23T04:01:37;100146.69;;;18.36;100.00
50434;BME280;36361;38.954;-9.002;2023-05-23T04:02:39;100148.56;;;18.56;100.00
50434;BME280;36361;38.954;-9.002;2023-05-23T04:03:39;100147.47;;;18.46;100.00
50434;BME280;36361;38.954;-9.002;2023-05-23T04:04:41;100139.53;;;18.35;100.00
50434;BME280;36361;38.954;-9.002;2023-05-23T04:05:42;100137.84;;;18.44;100.00
50434;BME280;36361;38.954;-9.002;2023-05-23T04:06:44;100130.41;;;18.50;100.00
50434;BME280;36361;38.954;-9.002;2023-05-23T04:07:45;100138.16;;;18.37;100.00
50434;BME280;36361;38.954;-9.002;2023-05-23T04:08:46;100140.84;;;18.53;100.00
50434;BME280;36361;38.954;-9.002;2023-05-23T04:09:47;100130.34;;;18.70;100.00
50434;BME280;36361;38.954;-9.002;2023-05-23T04:10:51;100127.59;;;18.75;100.00
50434;BME280;36361;38.954;-9.002;2023-05-23T04:11:52;100127.59;;;18.75;100.00
50434;BME280;36361;38.954;-9.002;2023-05-23T04:12:54;100125.69;;;18.65;100.00
50434;BME280;36361;38.954;-9.002;2023-05-23T04:13:56;100141.47;;;18.39;100.00
50434;BME280;36361;38.954;-9.002;2023-05-23T04:14:57;100142.31;;;18.30;100.00
50434;BME280;36361;38.954;-9.002;2023-05-23T04:16:00;100140.97;;;18.12;100.00
50434;BME280;36361;38.954;-9.002;2023-05-23T04:17:01;100143.66;;;18.42;100.00
50434;BME280;36361;38.954;-9.002;2023-05-23T04:18:03;100140.06;;;18.42;100.00
50434;BME280;36361;38.954;-9.002;2023-05-23T04:19:03;100146.66;;;18.46;100.00
50434;BME280;36361;38.954;-9.002;2023-05-23T04:20:08;100139.78;;;18.48;100.00
50434;BME280;36361;38.954;-9.002;2023-05-23T04:21:09;100147.19;;;18.53;100.00
50434;BME280;36361;38.954;-9.002;2023-05-23T04:22:16;100146.66;;;18.46;100.00
50434;BME280;36361;38.954;-9.002;2023-05-23T04:23:18;100153.56;;;18.43;100.00
50434;BME280;36361;38.954;-9.002;2023-05-23T04:24:23;100146.97;;;18.39;100.00
50434;BME280;36361;38.954;-9.002;2023-05-23T04:25:23;100152.50;;;18.34;100.00
50434;BME280;36361;38.954;-9.002;2023-05-23T04:26:38;100146.44;;;18.27;100.00
50434;BME280;36361;38.954;-9.002;2023-05-23T04:27:39;100151.94;;;18.27;100.00
50434;BME280;36361;38.954;-9.002;2023-05-23T04:28:41;100150.88;;;18.18;100.00
50434;BME280;36361;38.954;-9.002;2023-05-23T04:29:45;100153.06;;;18.16;100.00
50434;BME280;36361;38.954;-9.002;2023-05-23T04:30:46;100161.88;;;18.18;100.00
50434;BME280;36361;38.954;-9.002;2023-05-23T04:31:49;100164.09;;;18.16;100.00
50434;BME280;36361;38.954;-9.002;2023-05-23T04:32:50;100159.41;;;18.16;100.00
50434;BME280;36361;38.954;-9.002;2023-05-23T04:33:51;100166.56;;;18.17;100.00
50434;BME280;36361;38.954;-9.002;2023-05-23T04:34:53;100162.44;;;18.15;100.00
50434;BME280;36361;38.954;-9.002;2023-05-23T04:35:56;100162.44;;;18.15;100.00
50434;BME280;36361;38.954;-9.002;2023-05-23T04:36:57;100165.19;;;18.10;100.00
50434;BME280;36361;38.954;-9.002;2023-05-23T04:37:58;100161.91;;;18.13;100.00
50434;BME280;36361;38.954;-9.002;2023-05-23T04:39:00;100163.00;;;18.07;100.00
50434;BME280;36361;38.954;-9.002;2023-05-23T04:40:05;100160.25;;;18.12;100.00
50434;BME280;36361;38.954;-9.002;2023-05-23T04:41:16;100171.28;;;18.12;100.00
50434;BME280;36361;38.954;-9.002;2023-05-23T04:42:51;100173.50;;;17.95;100.00
50434;BME280;36361;38.954;-9.002;2023-05-23T04:44:05;100176.78;;;17.86;100.00
50434;BME280;36361;38.954;-9.002;2023-05-23T04:45:11;100180.88;;;17.63;100.00
50434;BME280;36361;38.954;-9.002;2023-05-23T04:46:43;100178.94;;;17.44;100.00
50434;BME280;36361;38.954;-9.002;2023-05-23T04:48:05;100182.22;;;17.46;100.00
50434;BME280;36361;38.954;-9.002;2023-05-23T04:49:26;100183.31;;;17.29;100.00
50434;BME280;36361;38.954;-9.002;2023-05-23T04:50:27;100176.41;;;17.22;100.00
50434;BME280;36361;38.954;-9.002;2023-05-23T04:51:28;100179.88;;;16.87;100.00
50434;BME280;36361;38.954;-9.002;2023-05-23T04:52:34;100181.59;;;17.03;100.00
50434;BME280;36361;38.954;-9.002;2023-05-23T04:53:35;100182.38;;;16.98;100.00
50434;BME280;36361;38.954;-9.002;2023-05-23T04:54:36;100196.75;;;16.58;100.00
50434;BME280;36361;38.954;-9.002;2023-05-23T04:55:39;100191.72;;;16.45;100.00
50434;BME280;36361;38.954;-9.002;2023-05-23T04:56:46;100186.88;;;16.62;100.00
50434;BME280;36361;38.954;-9.002;2023-05-23T04:57:48;100191.50;;;17.04;100.00
50434;BME280;36361;38.954;-9.002;2023-05-23T04:58:49;100186.56;;;17.11;100.00
50434;BME280;36361;38.954;-9.002;2023-05-23T04:59:49;100185.75;;;17.11;100.00
50434;BME280;36361;38.954;-9.002;2023-05-23T05:00:51;100184.34;;;17.03;100.00
50434;BME280;36361;38.954;-9.002;2023-05-23T05:01:52;100182.16;;;17.15;100.00
50434;BME280;36361;38.954;-9.002;2023-05-23T05:02:53;100181.28;;;16.94;100.00
50434;BME280;36361;38.954;-9.002;2023-05-23T05:03:57;100187.63;;;17.00;100.00
50434;BME280;36361;38.954;-9.002;2023-05-23T05:04:57;100186.50;;;16.96;100.00
50434;BME280;36361;38.954;-9.002;2023-05-23T05:06:01;100186.28;;;17.02;100.00
50434;BME280;36361;38.954;-9.002;2023-05-23T05:07:05;100185.44;;;17.02;100.00
50434;BME280;36361;38.954;-9.002;2023-05-23T05:08:07;100184.88;;;17.00;100.00
50434;BME280;36361;38.954;-9.002;2023-05-23T05:09:09;100188.44;;;16.95;100.00
50434;BME280;36361;38.954;-9.002;2023-05-23T05:10:10;100184.31;;;16.93;100.00
50434;BME280;36361;38.954;-9.002;2023-05-23T05:11:16;100185.75;;;17.16;100.00
50434;BME280;36361;38.954;-9.002;2023-05-23T05:12:17;100181.03;;;17.06;100.00
50434;BME280;36361;38.954;-9.002;2023-05-23T05:13:17;100187.38;;;17.01;100.00
50434;BME280;36361;38.954;-9.002;2023-05-23T05:14:25;100189.78;;;16.83;100.00
50434;BME280;36361;38.954;-9.002;2023-05-23T05:15:27;100181.97;;;16.64;100.00
50434;BME280;36361;38.954;-9.002;2023-05-23T05:16:31;100188.47;;;16.48;100.00
50434;BME280;36361;38.954;-9.002;2023-05-23T05:17:31;100187.63;;;16.47;100.00
50434;BME280;36361;38.954;-9.002;2023-05-23T05:18:39;100186.00;;;16.46;100.00
50434;BME280;36361;38.954;-9.002;2023-05-23T05:19:40;100182.31;;;16.31;100.00
50434;BME280;36361;38.954;-9.002;2023-05-23T05:20:41;100182.41;;;16.46;100.00
50434;BME280;36361;38.954;-9.002;2023-05-23T05:21:42;100185.22;;;16.56;100.00
50434;BME280;36361;38.954;-9.002;2023-05-23T05:22:44;100178.47;;;16.79;100.00
50434;BME280;36361;38.954;-9.002;2023-05-23T05:23:46;100185.34;;;16.76;100.00
50434;BME280;36361;38.954;-9.002;2023-05-23T05:24:49;100186.88;;;16.62;100.00
50434;BME280;36361;38.954;-9.002;2023-05-23T05:25:50;100182.66;;;16.44;100.00
50434;BME280;36361;38.954;-9.002;2023-05-23T05:26:51;100178.25;;;16.38;100.00
50434;BME280;36361;38.954;-9.002;2023-05-23T05:27:52;100186.31;;;16.60;100.00